sensor_id;sensor_type;location;lat;lon;timestamp;P1;durP1;ratioP1;P2;durP2;ratioP2
9745;SDS011;4912;50.836;12.958;2022-07-26T00:00:20;8.90;;;5.38;;
9745;SDS011;4912;50.836;12.958;2022-07-26T00:05:20;8.63;;;6.32;;
9745;SDS011;4912;50.836;12.958;2022-07-26T00:07:51;12.82;;;5.82;;
9745;SDS011;4912;50.836;12.958;2022-07-26T00:10:37;12.85;;;5.75;;
9745;SDS011;4912;50.836;12.958;2022-07-26T00:13:12;10.90;;;6.40;;
9745;SDS011;4912;50.836;12.958;2022-07-26T00:15:43;11.15;;;6.35;;
9745;SDS011;4912;50.836;12.958;2022-07-26T00:18:14;10.20;;;6.35;;
9745;SDS011;4912;50.836;12.958;2022-07-26T00:20:45;11.73;;;6.18;;
9745;SDS011;4912;50.836;12.958;2022-07-26T00:23:16;8.73;;;5.97;;
9745;SDS011;4912;50.836;12.958;2022-07-26T00:25:47;9.88;;;6.63;;
9745;SDS011;4912;50.836;12.958;2022-07-26T00:28:20;16.70;;;8.07;;
9745;SDS011;4912;50.836;12.958;2022-07-26T00:30:50;16.83;;;8.20;;
9745;SDS011;4912;50.836;12.958;2022-07-26T00:33:20;17.42;;;8.18;;
9745;SDS011;4912;50.836;12.958;2022-07-26T00:35:51;11.95;;;7.60;;
9745;SDS011;4912;50.836;12.958;2022-07-26T00:38:21;14.93;;;8.95;;
9745;SDS011;4912;50.836;12.958;2022-07-26T00:40:51;12.07;;;7.70;;
9745;SDS011;4912;50.836;12.958;2022-07-26T00:43:24;13.10;;;7.97;;
9745;SDS011;4912;50.836;12.958;2022-07-26T00:45:54;10.13;;;7.15;;
9745;SDS011;4912;50.836;12.958;2022-07-26T00:48:25;11.52;;;7.78;;
9745;SDS011;4912;50.836;12.958;2022-07-26T00:50:56;16.23;;;6.95;;
9745;SDS011;4912;50.836;12.958;2022-07-26T00:53:26;12.38;;;7.60;;
9745;SDS011;4912;50.836;12.958;2022-07-26T00:55:56;11.30;;;7.85;;
9745;SDS011;4912;50.836;12.958;2022-07-26T00:58:30;12.02;;;7.60;;
9745;SDS011;4912;50.836;12.958;2022-07-26T01:01:00;12.80;;;7.40;;
9745;SDS011;4912;50.836;12.958;2022-07-26T01:03:30;12.75;;;7.22;;
9745;SDS011;4912;50.836;12.958;2022-07-26T01:06:04;12.73;;;8.02;;
9745;SDS011;4912;50.836;12.958;2022-07-26T01:08:35;12.27;;;8.20;;
9745;SDS011;4912;50.836;12.958;2022-07-26T01:11:06;12.23;;;7.78;;
9745;SDS011;4912;50.836;12.958;2022-07-26T01:13:39;13.27;;;7.63;;
9745;SDS011;4912;50.836;12.958;2022-07-26T01:16:15;13.75;;;7.82;;
9745;SDS011;4912;50.836;12.958;2022-07-26T01:18:46;11.30;;;7.68;;
9745;SDS011;4912;50.836;12.958;2022-07-26T01:21:16;15.20;;;8.20;;
9745;SDS011;4912;50.836;12.958;2022-07-26T01:23:50;12.93;;;8.60;;
9745;SDS011;4912;50.836;12.958;2022-07-26T01:26:20;12.50;;;7.97;;
9745;SDS011;4912;50.836;12.958;2022-07-26T01:28:51;15.32;;;8.18;;
9745;SDS011;4912;50.836;12.958;2022-07-26T01:31:21;10.90;;;7.70;;
9745;SDS011;4912;50.836;12.958;2022-07-26T01:33:52;9.88;;;7.00;;
9745;SDS011;4912;50.836;12.958;2022-07-26T01:36:22;11.10;;;8.07;;
9745;SDS011;4912;50.836;12.958;2022-07-26T01:38:56;12.23;;;8.10;;
9745;SDS011;4912;50.836;12.958;2022-07-26T01:41:26;10.35;;;7.25;;
9745;SDS011;4912;50.836;12.958;2022-07-26T01:44:04;11.65;;;7.30;;
9745;SDS011;4912;50.836;12.958;2022-07-26T01:46:36;13.10;;;7.88;;
9745;SDS011;4912;50.836;12.958;2022-07-26T01:49:06;16.23;;;7.78;;
9745;SDS011;4912;50.836;12.958;2022-07-26T01:51:36;8.95;;;7.18;;
9745;SDS011;4912;50.836;12.958;2022-07-26T01:54:09;11.02;;;7.63;;
9745;SDS011;4912;50.836;12.958;2022-07-26T01:56:40;9.50;;;7.20;;
9745;SDS011;4912;50.836;12.958;2022-07-26T01:59:11;10.90;;;7.25;;
9745;SDS011;4912;50.836;12.958;2022-07-26T02:01:41;10.25;;;7.38;;
9745;SDS011;4912;50.836;12.958;2022-07-26T02:04:12;15.40;;;7.70;;
9745;SDS011;4912;50.836;12.958;2022-07-26T02:06:54;10.60;;;7.32;;
9745;SDS011;4912;50.836;12.958;2022-07-26T02:09:27;12.48;;;7.35;;
9745;SDS011;4912;50.836;12.958;2022-07-26T02:12:05;11.30;;;7.20;;
9745;SDS011;4912;50.836;12.958;2022-07-26T02:14:37;10.70;;;7.43;;
9745;SDS011;4912;50.836;12.958;2022-07-26T02:17:07;10.55;;;6.88;;
9745;SDS011;4912;50.836;12.958;2022-07-26T02:19:37;10.20;;;7.03;;
9745;SDS011;4912;50.836;12.958;2022-07-26T02:22:08;11.25;;;7.28;;
9745;SDS011;4912;50.836;12.958;2022-07-26T02:24:41;12.05;;;6.88;;
9745;SDS011;4912;50.836;12.958;2022-07-26T02:27:11;10.38;;;6.95;;
9745;SDS011;4912;50.836;12.958;2022-07-26T02:32:12;11.60;;;6.97;;
9745;SDS011;4912;50.836;12.958;2022-07-26T02:34:42;8.80;;;7.03;;
9745;SDS011;4912;50.836;12.958;2022-07-26T02:37:12;14.13;;;6.43;;
9745;SDS011;4912;50.836;12.958;2022-07-26T02:39:45;11.32;;;6.93;;
9745;SDS011;4912;50.836;12.958;2022-07-26T02:42:15;9.25;;;7.00;;
9745;SDS011;4912;50.836;12.958;2022-07-26T02:44:46;10.27;;;7.75;;
9745;SDS011;4912;50.836;12.958;2022-07-26T02:47:16;10.95;;;6.85;;
9745;SDS011;4912;50.836;12.958;2022-07-26T02:49:46;13.00;;;7.63;;
9745;SDS011;4912;50.836;12.958;2022-07-26T02:52:16;9.75;;;7.22;;
9745;SDS011;4912;50.836;12.958;2022-07-26T02:54:49;11.00;;;7.72;;
9745;SDS011;4912;50.836;12.958;2022-07-26T02:57:19;12.40;;;8.30;;
9745;SDS011;4912;50.836;12.958;2022-07-26T03:02:20;11.93;;;7.97;;
9745;SDS011;4912;50.836;12.958;2022-07-26T03:04:50;10.07;;;7.40;;
9745;SDS011;4912;50.836;12.958;2022-07-26T03:07:20;10.40;;;7.07;;
9745;SDS011;4912;50.836;12.958;2022-07-26T03:09:53;11.52;;;7.07;;
9745;SDS011;4912;50.836;12.958;2022-07-26T03:12:24;12.65;;;8.30;;
9745;SDS011;4912;50.836;12.958;2022-07-26T03:14:54;12.07;;;8.18;;
9745;SDS011;4912;50.836;12.958;2022-07-26T03:17:24;9.82;;;8.05;;
9745;SDS011;4912;50.836;12.958;2022-07-26T03:19:57;13.77;;;9.20;;
9745;SDS011;4912;50.836;12.958;2022-07-26T03:22:28;10.65;;;7.40;;
9745;SDS011;4912;50.836;12.958;2022-07-26T03:25:01;11.02;;;7.57;;
9745;SDS011;4912;50.836;12.958;2022-07-26T03:27:32;10.77;;;8.20;;
9745;SDS011;4912;50.836;12.958;2022-07-26T03:30:02;16.60;;;9.38;;
9745;SDS011;4912;50.836;12.958;2022-07-26T03:32:34;15.35;;;8.68;;
9745;SDS011;4912;50.836;12.958;2022-07-26T03:35:04;10.27;;;7.95;;
9745;SDS011;4912;50.836;12.958;2022-07-26T03:37:36;13.60;;;9.40;;
9745;SDS011;4912;50.836;12.958;2022-07-26T03:40:14;12.02;;;8.70;;
9745;SDS011;4912;50.836;12.958;2022-07-26T03:42:46;11.05;;;8.68;;
9745;SDS011;4912;50.836;12.958;2022-07-26T03:45:17;11.05;;;8.15;;
9745;SDS011;4912;50.836;12.958;2022-07-26T03:47:47;12.57;;;8.80;;
9745;SDS011;4912;50.836;12.958;2022-07-26T03:50:18;12.07;;;8.38;;
9745;SDS011;4912;50.836;12.958;2022-07-26T03:52:49;12.25;;;7.95;;
9745;SDS011;4912;50.836;12.958;2022-07-26T03:55:22;11.30;;;8.27;;
9745;SDS011;4912;50.836;12.958;2022-07-26T03:58:04;11.90;;;8.15;;
9745;SDS011;4912;50.836;12.958;2022-07-26T04:00:34;12.57;;;8.70;;
9745;SDS011;4912;50.836;12.958;2022-07-26T04:05:35;11.30;;;8.25;;
9745;SDS011;4912;50.836;12.958;2022-07-26T04:08:14;14.30;;;7.97;;
9745;SDS011;4912;50.836;12.958;2022-07-26T04:10:47;12.85;;;8.27;;
9745;SDS011;4912;50.836;12.958;2022-07-26T04:13:19;10.88;;;8.18;;
9745;SDS011;4912;50.836;12.958;2022-07-26T04:15:49;12.43;;;8.23;;
9745;SDS011;4912;50.836;12.958;2022-07-26T04:18:21;13.57;;;8.73;;
9745;SDS011;4912;50.836;12.958;2022-07-26T04:20:52;11.85;;;8.18;;
9745;SDS011;4912;50.836;12.958;2022-07-26T04:23:22;12.23;;;8.45;;
9745;SDS011;4912;50.836;12.958;2022-07-26T04:25:55;12.05;;;8.07;;
9745;SDS011;4912;50.836;12.958;2022-07-26T04:28:25;10.80;;;8.07;;
9745;SDS011;4912;50.836;12.958;2022-07-26T04:30:56;11.35;;;8.02;;
9745;SDS011;4912;50.836;12.958;2022-07-26T04:33:27;10.55;;;8.07;;
9745;SDS011;4912;50.836;12.958;2022-07-26T04:35:58;11.85;;;7.85;;
9745;SDS011;4912;50.836;12.958;2022-07-26T04:38:29;14.38;;;7.70;;
9745;SDS011;4912;50.836;12.958;2022-07-26T04:41:02;13.65;;;7.00;;
9745;SDS011;4912;50.836;12.958;2022-07-26T04:43:33;12.52;;;6.97;;
9745;SDS011;4912;50.836;12.958;2022-07-26T04:46:03;11.48;;;7.38;;
9745;SDS011;4912;50.836;12.958;2022-07-26T04:48:35;11.52;;;6.40;;
9745;SDS011;4912;50.836;12.958;2022-07-26T04:51:06;12.20;;;6.65;;
9745;SDS011;4912;50.836;12.958;2022-07-26T04:53:36;18.25;;;7.70;;
9745;SDS011;4912;50.836;12.958;2022-07-26T04:56:09;9.82;;;5.95;;
9745;SDS011;4912;50.836;12.958;2022-07-26T04:58:40;9.85;;;6.15;;
9745;SDS011;4912;50.836;12.958;2022-07-26T05:01:10;13.10;;;6.10;;
9745;SDS011;4912;50.836;12.958;2022-07-26T05:06:10;9.63;;;5.80;;
9745;SDS011;4912;50.836;12.958;2022-07-26T05:08:40;13.13;;;6.88;;
9745;SDS011;4912;50.836;12.958;2022-07-26T05:13:43;14.63;;;5.78;;
9745;SDS011;4912;50.836;12.958;2022-07-26T05:16:13;11.85;;;6.05;;
9745;SDS011;4912;50.836;12.958;2022-07-26T05:18:44;10.85;;;5.78;;
9745;SDS011;4912;50.836;12.958;2022-07-26T05:21:15;11.82;;;5.70;;
9745;SDS011;4912;50.836;12.958;2022-07-26T05:23:46;10.98;;;6.40;;
9745;SDS011;4912;50.836;12.958;2022-07-26T05:26:19;13.23;;;5.57;;
9745;SDS011;4912;50.836;12.958;2022-07-26T05:28:50;13.52;;;6.15;;
9745;SDS011;4912;50.836;12.958;2022-07-26T05:31:21;12.15;;;5.90;;
9745;SDS011;4912;50.836;12.958;2022-07-26T05:36:22;11.73;;;6.00;;
9745;SDS011;4912;50.836;12.958;2022-07-26T05:38:52;8.57;;;5.55;;
9745;SDS011;4912;50.836;12.958;2022-07-26T05:41:25;10.50;;;5.20;;
9745;SDS011;4912;50.836;12.958;2022-07-26T05:43:55;10.38;;;5.25;;
9745;SDS011;4912;50.836;12.958;2022-07-26T05:46:26;8.30;;;4.88;;
9745;SDS011;4912;50.836;12.958;2022-07-26T05:48:56;9.68;;;4.47;;
9745;SDS011;4912;50.836;12.958;2022-07-26T05:53:57;8.82;;;3.90;;
9745;SDS011;4912;50.836;12.958;2022-07-26T05:56:31;7.50;;;3.70;;
9745;SDS011;4912;50.836;12.958;2022-07-26T05:59:01;12.30;;;3.45;;
9745;SDS011;4912;50.836;12.958;2022-07-26T06:01:31;6.07;;;3.10;;
9745;SDS011;4912;50.836;12.958;2022-07-26T06:04:02;9.10;;;3.67;;
9745;SDS011;4912;50.836;12.958;2022-07-26T06:06:35;13.07;;;3.90;;
9745;SDS011;4912;50.836;12.958;2022-07-26T06:09:05;6.20;;;3.13;;
9745;SDS011;4912;50.836;12.958;2022-07-26T06:11:38;7.63;;;3.47;;
9745;SDS011;4912;50.836;12.958;2022-07-26T06:14:08;5.53;;;3.00;;
9745;SDS011;4912;50.836;12.958;2022-07-26T06:16:39;8.23;;;3.10;;
9745;SDS011;4912;50.836;12.958;2022-07-26T06:21:39;9.88;;;3.58;;
9745;SDS011;4912;50.836;12.958;2022-07-26T06:24:11;8.57;;;2.92;;
9745;SDS011;4912;50.836;12.958;2022-07-26T06:29:22;6.50;;;2.92;;
9745;SDS011;4912;50.836;12.958;2022-07-26T06:31:58;8.02;;;3.55;;
9745;SDS011;4912;50.836;12.958;2022-07-26T06:36:58;5.80;;;3.40;;
9745;SDS011;4912;50.836;12.958;2022-07-26T06:39:29;12.55;;;3.90;;
9745;SDS011;4912;50.836;12.958;2022-07-26T06:42:02;7.38;;;3.85;;
9745;SDS011;4912;50.836;12.958;2022-07-26T06:44:32;8.55;;;3.15;;
9745;SDS011;4912;50.836;12.958;2022-07-26T06:47:03;6.43;;;2.85;;
9745;SDS011;4912;50.836;12.958;2022-07-26T06:49:33;7.63;;;2.22;;
9745;SDS011;4912;50.836;12.958;2022-07-26T06:52:04;7.60;;;3.08;;
9745;SDS011;4912;50.836;12.958;2022-07-26T06:54:34;10.38;;;2.60;;
9745;SDS011;4912;50.836;12.958;2022-07-26T06:57:07;8.63;;;2.78;;
9745;SDS011;4912;50.836;12.958;2022-07-26T06:59:37;10.18;;;3.00;;
9745;SDS011;4912;50.836;12.958;2022-07-26T07:02:07;4.15;;;2.22;;
9745;SDS011;4912;50.836;12.958;2022-07-26T07:04:38;9.20;;;2.20;;
9745;SDS011;4912;50.836;12.958;2022-07-26T07:07:08;6.15;;;2.50;;
9745;SDS011;4912;50.836;12.958;2022-07-26T07:09:40;8.05;;;2.60;;
9745;SDS011;4912;50.836;12.958;2022-07-26T07:14:43;9.07;;;2.53;;
9745;SDS011;4912;50.836;12.958;2022-07-26T07:17:16;4.50;;;1.98;;
9745;SDS011;4912;50.836;12.958;2022-07-26T07:19:48;9.57;;;2.30;;
9745;SDS011;4912;50.836;12.958;2022-07-26T07:22:18;10.07;;;2.25;;
9745;SDS011;4912;50.836;12.958;2022-07-26T07:27:21;7.27;;;2.17;;
9745;SDS011;4912;50.836;12.958;2022-07-26T07:29:52;4.07;;;1.70;;
9745;SDS011;4912;50.836;12.958;2022-07-26T07:34:54;3.67;;;1.50;;
9745;SDS011;4912;50.836;12.958;2022-07-26T07:37:24;5.55;;;1.83;;
9745;SDS011;4912;50.836;12.958;2022-07-26T07:40:14;7.32;;;1.55;;
9745;SDS011;4912;50.836;12.958;2022-07-26T07:45:17;9.75;;;2.15;;
9745;SDS011;4912;50.836;12.958;2022-07-26T07:50:17;7.93;;;2.17;;
9745;SDS011;4912;50.836;12.958;2022-07-26T07:52:52;5.60;;;1.92;;
9745;SDS011;4912;50.836;12.958;2022-07-26T07:55:24;5.97;;;2.00;;
9745;SDS011;4912;50.836;12.958;2022-07-26T07:58:12;10.77;;;2.42;;
9745;SDS011;4912;50.836;12.958;2022-07-26T08:00:44;4.65;;;1.83;;
9745;SDS011;4912;50.836;12.958;2022-07-26T08:03:15;8.18;;;2.10;;
9745;SDS011;4912;50.836;12.958;2022-07-26T08:08:17;5.72;;;2.03;;
9745;SDS011;4912;50.836;12.958;2022-07-26T08:10:49;6.22;;;2.00;;
9745;SDS011;4912;50.836;12.958;2022-07-26T08:13:24;6.63;;;1.90;;
9745;SDS011;4912;50.836;12.958;2022-07-26T08:15:55;6.00;;;2.00;;
9745;SDS011;4912;50.836;12.958;2022-07-26T08:18:26;4.80;;;1.60;;
9745;SDS011;4912;50.836;12.958;2022-07-26T08:23:26;5.55;;;1.70;;
9745;SDS011;4912;50.836;12.958;2022-07-26T08:25:56;6.72;;;1.85;;
9745;SDS011;4912;50.836;12.958;2022-07-26T08:28:34;10.27;;;1.67;;
9745;SDS011;4912;50.836;12.958;2022-07-26T08:31:14;5.88;;;1.67;;
9745;SDS011;4912;50.836;12.958;2022-07-26T08:33:46;4.90;;;1.90;;
9745;SDS011;4912;50.836;12.958;2022-07-26T08:36:17;4.65;;;1.80;;
9745;SDS011;4912;50.836;12.958;2022-07-26T08:43:51;5.45;;;1.70;;
9745;SDS011;4912;50.836;12.958;2022-07-26T08:46:21;6.90;;;1.80;;
9745;SDS011;4912;50.836;12.958;2022-07-26T08:48:54;8.77;;;1.75;;
9745;SDS011;4912;50.836;12.958;2022-07-26T08:51:25;7.40;;;1.80;;
9745;SDS011;4912;50.836;12.958;2022-07-26T08:53:58;4.93;;;1.73;;
9745;SDS011;4912;50.836;12.958;2022-07-26T08:56:32;6.13;;;1.90;;
9745;SDS011;4912;50.836;12.958;2022-07-26T08:59:11;7.82;;;1.60;;
9745;SDS011;4912;50.836;12.958;2022-07-26T09:01:51;6.47;;;1.95;;
9745;SDS011;4912;50.836;12.958;2022-07-26T09:04:25;8.07;;;1.90;;
9745;SDS011;4912;50.836;12.958;2022-07-26T09:07:03;4.68;;;1.63;;
9745;SDS011;4912;50.836;12.958;2022-07-26T09:09:36;6.85;;;1.75;;
9745;SDS011;4912;50.836;12.958;2022-07-26T09:12:26;4.07;;;1.83;;
9745;SDS011;4912;50.836;12.958;2022-07-26T09:15:01;4.47;;;1.55;;
9745;SDS011;4912;50.836;12.958;2022-07-26T09:17:38;4.93;;;1.80;;
9745;SDS011;4912;50.836;12.958;2022-07-26T09:20:12;6.53;;;2.17;;
9745;SDS011;4912;50.836;12.958;2022-07-26T09:22:57;7.00;;;1.80;;
9745;SDS011;4912;50.836;12.958;2022-07-26T09:25:31;6.63;;;1.85;;
9745;SDS011;4912;50.836;12.958;2022-07-26T09:28:03;3.92;;;1.65;;
9745;SDS011;4912;50.836;12.958;2022-07-26T09:30:53;3.15;;;1.60;;
9745;SDS011;4912;50.836;12.958;2022-07-26T09:33:26;5.68;;;1.60;;
9745;SDS011;4912;50.836;12.958;2022-07-26T09:36:15;8.45;;;1.60;;
9745;SDS011;4912;50.836;12.958;2022-07-26T09:38:47;10.50;;;2.08;;
9745;SDS011;4912;50.836;12.958;2022-07-26T09:41:20;5.35;;;1.60;;
9745;SDS011;4912;50.836;12.958;2022-07-26T09:43:53;4.47;;;2.28;;
9745;SDS011;4912;50.836;12.958;2022-07-26T09:46:30;4.75;;;1.85;;
9745;SDS011;4912;50.836;12.958;2022-07-26T09:49:14;7.25;;;1.85;;
9745;SDS011;4912;50.836;12.958;2022-07-26T09:51:47;4.22;;;1.65;;
9745;SDS011;4912;50.836;12.958;2022-07-26T09:54:19;4.35;;;1.30;;
9745;SDS011;4912;50.836;12.958;2022-07-26T09:57:01;3.40;;;1.40;;
9745;SDS011;4912;50.836;12.958;2022-07-26T09:59:31;3.53;;;1.50;;
9745;SDS011;4912;50.836;12.958;2022-07-26T10:02:04;7.55;;;1.38;;
9745;SDS011;4912;50.836;12.958;2022-07-26T10:04:35;4.25;;;1.40;;
9745;SDS011;4912;50.836;12.958;2022-07-26T10:07:06;4.10;;;1.33;;
9745;SDS011;4912;50.836;12.958;2022-07-26T10:09:39;3.03;;;1.20;;
9745;SDS011;4912;50.836;12.958;2022-07-26T10:12:15;4.40;;;1.73;;
9745;SDS011;4912;50.836;12.958;2022-07-26T10:14:52;4.40;;;1.60;;
9745;SDS011;4912;50.836;12.958;2022-07-26T10:26:12;5.22;;;1.70;;
9745;SDS011;4912;50.836;12.958;2022-07-26T10:29:20;3.75;;;1.45;;
9745;SDS011;4912;50.836;12.958;2022-07-26T10:34:49;6.60;;;1.25;;
9745;SDS011;4912;50.836;12.958;2022-07-26T10:37:20;3.05;;;1.30;;
9745;SDS011;4912;50.836;12.958;2022-07-26T10:40:14;3.15;;;1.40;;
9745;SDS011;4912;50.836;12.958;2022-07-26T10:42:51;5.20;;;1.60;;
9745;SDS011;4912;50.836;12.958;2022-07-26T10:45:21;4.18;;;1.40;;
9745;SDS011;4912;50.836;12.958;2022-07-26T10:50:48;3.67;;;1.40;;
9745;SDS011;4912;50.836;12.958;2022-07-26T10:53:20;4.97;;;1.48;;
9745;SDS011;4912;50.836;12.958;2022-07-26T10:55:53;3.50;;;1.40;;
9745;SDS011;4912;50.836;12.958;2022-07-26T10:58:27;3.35;;;1.42;;
9745;SDS011;4912;50.836;12.958;2022-07-26T11:01:10;6.45;;;1.52;;
9745;SDS011;4912;50.836;12.958;2022-07-26T11:03:42;5.55;;;1.50;;
9745;SDS011;4912;50.836;12.958;2022-07-26T11:06:16;11.85;;;1.50;;
9745;SDS011;4912;50.836;12.958;2022-07-26T11:08:48;3.83;;;1.52;;
9745;SDS011;4912;50.836;12.958;2022-07-26T11:11:25;3.75;;;1.50;;
9745;SDS011;4912;50.836;12.958;2022-07-26T11:14:05;2.47;;;1.40;;
9745;SDS011;4912;50.836;12.958;2022-07-26T11:16:38;3.83;;;1.20;;
9745;SDS011;4912;50.836;12.958;2022-07-26T11:19:11;2.97;;;1.30;;
9745;SDS011;4912;50.836;12.958;2022-07-26T11:21:51;5.75;;;1.52;;
9745;SDS011;4912;50.836;12.958;2022-07-26T11:24:24;4.40;;;1.38;;
9745;SDS011;4912;50.836;12.958;2022-07-26T11:26:55;2.20;;;1.30;;
9745;SDS011;4912;50.836;12.958;2022-07-26T11:29:26;5.90;;;1.30;;
9745;SDS011;4912;50.836;12.958;2022-07-26T11:32:08;3.80;;;1.38;;
9745;SDS011;4912;50.836;12.958;2022-07-26T11:34:56;5.75;;;2.40;;
9745;SDS011;4912;50.836;12.958;2022-07-26T11:40:00;4.82;;;1.42;;
9745;SDS011;4912;50.836;12.958;2022-07-26T11:42:30;3.33;;;1.30;;
9745;SDS011;4912;50.836;12.958;2022-07-26T11:45:00;4.97;;;1.30;;
9745;SDS011;4912;50.836;12.958;2022-07-26T11:47:31;2.80;;;1.58;;
9745;SDS011;4912;50.836;12.958;2022-07-26T11:50:03;2.50;;;1.25;;
9745;SDS011;4912;50.836;12.958;2022-07-26T11:52:51;2.67;;;1.10;;
9745;SDS011;4912;50.836;12.958;2022-07-26T11:55:25;2.45;;;1.10;;
9745;SDS011;4912;50.836;12.958;2022-07-26T11:58:02;2.92;;;1.20;;
9745;SDS011;4912;50.836;12.958;2022-07-26T12:00:34;4.15;;;1.23;;
9745;SDS011;4912;50.836;12.958;2022-07-26T12:03:05;4.10;;;1.23;;
9745;SDS011;4912;50.836;12.958;2022-07-26T12:05:35;3.55;;;1.40;;
9745;SDS011;4912;50.836;12.958;2022-07-26T12:08:10;3.33;;;1.20;;
9745;SDS011;4912;50.836;12.958;2022-07-26T12:10:40;4.63;;;1.50;;
9745;SDS011;4912;50.836;12.958;2022-07-26T12:13:11;3.03;;;1.40;;
9745;SDS011;4912;50.836;12.958;2022-07-26T12:15:45;2.67;;;1.70;;
9745;SDS011;4912;50.836;12.958;2022-07-26T12:18:21;2.80;;;1.45;;
9745;SDS011;4912;50.836;12.958;2022-07-26T12:20:56;2.78;;;1.42;;
9745;SDS011;4912;50.836;12.958;2022-07-26T12:23:44;2.13;;;1.00;;
9745;SDS011;4912;50.836;12.958;2022-07-26T12:26:17;6.00;;;1.70;;
9745;SDS011;4912;50.836;12.958;2022-07-26T12:28:52;1.55;;;1.00;;
9745;SDS011;4912;50.836;12.958;2022-07-26T12:31:24;1.88;;;1.10;;
9745;SDS011;4912;50.836;12.958;2022-07-26T12:33:57;3.05;;;1.13;;
9745;SDS011;4912;50.836;12.958;2022-07-26T12:36:27;2.83;;;1.08;;
9745;SDS011;4912;50.836;12.958;2022-07-26T12:39:00;4.15;;;1.70;;
9745;SDS011;4912;50.836;12.958;2022-07-26T12:41:31;4.38;;;1.50;;
9745;SDS011;4912;50.836;12.958;2022-07-26T12:44:04;3.78;;;1.63;;
9745;SDS011;4912;50.836;12.958;2022-07-26T12:46:38;3.38;;;1.40;;
9745;SDS011;4912;50.836;12.958;2022-07-26T12:49:10;4.70;;;1.10;;
9745;SDS011;4912;50.836;12.958;2022-07-26T12:51:41;3.92;;;1.30;;
9745;SDS011;4912;50.836;12.958;2022-07-26T12:54:14;2.90;;;1.30;;
9745;SDS011;4912;50.836;12.958;2022-07-26T12:56:44;5.13;;;1.20;;
9745;SDS011;4912;50.836;12.958;2022-07-26T12:59:14;3.22;;;1.30;;
9745;SDS011;4912;50.836;12.958;2022-07-26T13:01:45;3.30;;;1.20;;
9745;SDS011;4912;50.836;12.958;2022-07-26T13:04:15;4.28;;;1.67;;
9745;SDS011;4912;50.836;12.958;2022-07-26T13:06:46;4.13;;;1.70;;
9745;SDS011;4912;50.836;12.958;2022-07-26T13:09:18;3.65;;;1.40;;
9745;SDS011;4912;50.836;12.958;2022-07-26T13:11:49;3.63;;;1.40;;
9745;SDS011;4912;50.836;12.958;2022-07-26T13:14:19;6.95;;;1.63;;
9745;SDS011;4912;50.836;12.958;2022-07-26T13:16:49;7.45;;;1.50;;
9745;SDS011;4912;50.836;12.958;2022-07-26T13:19:20;3.67;;;1.48;;
9745;SDS011;4912;50.836;12.958;2022-07-26T13:21:50;3.92;;;1.60;;
9745;SDS011;4912;50.836;12.958;2022-07-26T13:24:23;4.90;;;2.05;;
9745;SDS011;4912;50.836;12.958;2022-07-26T13:26:55;3.58;;;1.95;;
9745;SDS011;4912;50.836;12.958;2022-07-26T13:29:26;3.75;;;1.50;;
9745;SDS011;4912;50.836;12.958;2022-07-26T13:31:57;4.20;;;1.40;;
9745;SDS011;4912;50.836;12.958;2022-07-26T13:34:27;7.68;;;1.30;;
9745;SDS011;4912;50.836;12.958;2022-07-26T13:37:00;3.63;;;1.20;;
9745;SDS011;4912;50.836;12.958;2022-07-26T13:39:37;5.35;;;1.58;;
9745;SDS011;4912;50.836;12.958;2022-07-26T13:42:07;5.80;;;1.48;;
9745;SDS011;4912;50.836;12.958;2022-07-26T13:44:37;5.85;;;1.40;;
9745;SDS011;4912;50.836;12.958;2022-07-26T13:47:07;2.58;;;1.30;;
9745;SDS011;4912;50.836;12.958;2022-07-26T13:49:38;6.93;;;1.60;;
9745;SDS011;4912;50.836;12.958;2022-07-26T13:52:08;3.10;;;1.50;;
9745;SDS011;4912;50.836;12.958;2022-07-26T13:54:45;2.75;;;1.45;;
9745;SDS011;4912;50.836;12.958;2022-07-26T13:57:15;4.38;;;1.70;;
9745;SDS011;4912;50.836;12.958;2022-07-26T13:59:45;4.57;;;1.40;;
9745;SDS011;4912;50.836;12.958;2022-07-26T14:02:15;8.70;;;1.90;;
9745;SDS011;4912;50.836;12.958;2022-07-26T14:04:46;5.13;;;1.48;;
9745;SDS011;4912;50.836;12.958;2022-07-26T14:07:16;6.00;;;1.70;;
9745;SDS011;4912;50.836;12.958;2022-07-26T14:09:49;5.15;;;1.27;;
9745;SDS011;4912;50.836;12.958;2022-07-26T14:12:19;3.55;;;1.92;;
9745;SDS011;4912;50.836;12.958;2022-07-26T14:14:50;4.85;;;1.75;;
9745;SDS011;4912;50.836;12.958;2022-07-26T14:17:20;4.97;;;1.38;;
9745;SDS011;4912;50.836;12.958;2022-07-26T14:19:50;4.38;;;1.50;;
9745;SDS011;4912;50.836;12.958;2022-07-26T14:22:20;4.47;;;1.50;;
9745;SDS011;4912;50.836;12.958;2022-07-26T14:24:53;4.70;;;1.48;;
9745;SDS011;4912;50.836;12.958;2022-07-26T14:27:23;7.28;;;1.42;;
9745;SDS011;4912;50.836;12.958;2022-07-26T14:29:54;4.38;;;1.50;;
9745;SDS011;4912;50.836;12.958;2022-07-26T14:32:24;5.25;;;1.40;;
9745;SDS011;4912;50.836;12.958;2022-07-26T14:34:54;4.90;;;1.48;;
9745;SDS011;4912;50.836;12.958;2022-07-26T14:37:25;4.30;;;1.40;;
9745;SDS011;4912;50.836;12.958;2022-07-26T14:40:14;7.15;;;1.42;;
9745;SDS011;4912;50.836;12.958;2022-07-26T14:42:45;7.53;;;1.52;;
9745;SDS011;4912;50.836;12.958;2022-07-26T14:45:16;3.53;;;1.15;;
9745;SDS011;4912;50.836;12.958;2022-07-26T14:47:46;5.28;;;1.90;;
9745;SDS011;4912;50.836;12.958;2022-07-26T14:50:17;6.45;;;1.52;;
9745;SDS011;4912;50.836;12.958;2022-07-26T14:52:49;4.00;;;1.33;;
9745;SDS011;4912;50.836;12.958;2022-07-26T14:55:21;6.45;;;1.50;;
9745;SDS011;4912;50.836;12.958;2022-07-26T14:57:52;3.25;;;1.85;;
9745;SDS011;4912;50.836;12.958;2022-07-26T15:00:22;2.83;;;1.50;;
9745;SDS011;4912;50.836;12.958;2022-07-26T15:02:52;5.80;;;1.65;;
9745;SDS011;4912;50.836;12.958;2022-07-26T15:05:23;3.90;;;1.60;;
9745;SDS011;4912;50.836;12.958;2022-07-26T15:07:53;3.08;;;1.67;;
9745;SDS011;4912;50.836;12.958;2022-07-26T15:10:36;4.95;;;1.98;;
9745;SDS011;4912;50.836;12.958;2022-07-26T15:13:06;3.67;;;1.60;;
9745;SDS011;4912;50.836;12.958;2022-07-26T15:15:38;5.85;;;1.73;;
9745;SDS011;4912;50.836;12.958;2022-07-26T15:18:08;4.07;;;1.75;;
9745;SDS011;4912;50.836;12.958;2022-07-26T15:20:39;6.00;;;1.45;;
9745;SDS011;4912;50.836;12.958;2022-07-26T15:23:11;5.68;;;1.77;;
9745;SDS011;4912;50.836;12.958;2022-07-26T15:25:44;3.05;;;1.40;;
9745;SDS011;4912;50.836;12.958;2022-07-26T15:28:14;5.90;;;1.40;;
9745;SDS011;4912;50.836;12.958;2022-07-26T15:30:45;4.28;;;1.60;;
9745;SDS011;4912;50.836;12.958;2022-07-26T15:33:15;3.92;;;1.40;;
9745;SDS011;4912;50.836;12.958;2022-07-26T15:35:46;4.68;;;1.60;;
9745;SDS011;4912;50.836;12.958;2022-07-26T15:38:18;8.43;;;2.53;;
9745;SDS011;4912;50.836;12.958;2022-07-26T15:40:51;5.93;;;1.80;;
9745;SDS011;4912;50.836;12.958;2022-07-26T15:43:22;8.13;;;2.00;;
9745;SDS011;4912;50.836;12.958;2022-07-26T15:46:14;3.70;;;1.45;;
9745;SDS011;4912;50.836;12.958;2022-07-26T15:48:47;3.83;;;2.33;;
9745;SDS011;4912;50.836;12.958;2022-07-26T15:51:17;4.07;;;1.77;;
9745;SDS011;4912;50.836;12.958;2022-07-26T15:53:50;5.25;;;1.75;;
9745;SDS011;4912;50.836;12.958;2022-07-26T15:56:23;5.63;;;2.30;;
9745;SDS011;4912;50.836;12.958;2022-07-26T15:58:53;5.20;;;2.08;;
9745;SDS011;4912;50.836;12.958;2022-07-26T16:01:23;6.70;;;2.00;;
9745;SDS011;4912;50.836;12.958;2022-07-26T16:03:54;7.47;;;2.20;;
9745;SDS011;4912;50.836;12.958;2022-07-26T16:06:24;10.88;;;2.58;;
9745;SDS011;4912;50.836;12.958;2022-07-26T16:11:47;5.95;;;2.13;;
9745;SDS011;4912;50.836;12.958;2022-07-26T16:14:18;6.53;;;2.17;;
9745;SDS011;4912;50.836;12.958;2022-07-26T16:16:48;6.72;;;2.40;;
9745;SDS011;4912;50.836;12.958;2022-07-26T16:19:18;6.63;;;2.20;;
9745;SDS011;4912;50.836;12.958;2022-07-26T16:21:48;4.60;;;2.20;;
9745;SDS011;4912;50.836;12.958;2022-07-26T16:26:53;5.18;;;2.20;;
9745;SDS011;4912;50.836;12.958;2022-07-26T16:29:24;7.63;;;2.45;;
9745;SDS011;4912;50.836;12.958;2022-07-26T16:31:54;3.90;;;1.95;;
9745;SDS011;4912;50.836;12.958;2022-07-26T16:34:24;6.63;;;2.35;;
9745;SDS011;4912;50.836;12.958;2022-07-26T16:36:55;4.88;;;2.40;;
9745;SDS011;4912;50.836;12.958;2022-07-26T16:41:58;8.50;;;2.20;;
9745;SDS011;4912;50.836;12.958;2022-07-26T16:44:32;8.77;;;2.13;;